Time;durP1;ratioP1;P1;durP2;ratioP2;P2;SDS_P1;SDS_P2;PMS_P1;PMS_P2;Temp;Humidity;BMP_temperature;BMP_pressure;BME280_temperature;BME280_humidity;BME280_pressure;Samples;Min_cycle;Max_cycle;Signal;HPM_P1;HPM_P2
2021/12/20 00:01:09;;;;;;;20.73;3.15;;;3.30;99.90;;;;;;5058290;28;20020;-69
2021/12/20 00:03:37;;;;;;;17.25;3.45;;;3.30;99.90;;;;;;5058425;28;20021;-69
2021/12/20 00:06:05;;;;;;;26.50;3.78;;;3.30;99.90;;;;;;5058193;28;20358;-69
2021/12/20 00:08:36;;;;;;;23.00;3.97;;;3.30;99.90;;;;;;5058886;28;20036;-69
2021/12/20 00:11:04;;;;;;;25.52;3.88;;;3.30;99.90;;;;;;5059150;28;20504;-69
2021/12/20 00:13:32;;;;;;;22.70;4.10;;;3.30;99.90;;;;;;5059018;28;20025;-69
2021/12/20 00:16:02;;;;;;;39.10;7.00;;;3.30;99.90;;;;;;5059712;28;20029;-69
2021/12/20 00:18:30;;;;;;;34.20;5.18;;;3.30;99.90;;;;;;5059670;28;20024;-69
2021/12/20 00:20:58;;;;;;;42.83;6.20;;;3.20;99.90;;;;;;5058707;28;20108;-69
2021/12/20 00:23:26;;;;;;;30.40;5.47;;;3.10;99.90;;;;;;5058731;28;20029;-69
2021/12/20 00:25:53;;;;;;;27.75;3.92;;;3.10;99.90;;;;;;5058724;28;20074;-69
2021/12/20 00:28:22;;;;;;;30.20;5.15;;;3.00;99.90;;;;;;5057461;28;20025;-69
2021/12/20 00:30:49;;;;;;;26.23;5.25;;;3.00;99.90;;;;;;5058238;28;20032;-69
2021/12/20 00:33:17;;;;;;;25.77;4.07;;;2.90;99.90;;;;;;5058167;28;20031;-69
2021/12/20 00:35:46;;;;;;;21.70;3.00;;;2.90;99.90;;;;;;5057638;28;20086;-69
2021/12/20 00:40:59;;;;;;;23.37;4.23;;;2.70;99.90;;;;;;5057859;28;20245;-68
2021/12/20 00:43:27;;;;;;;30.63;5.80;;;2.60;99.90;;;;;;5057524;28;20615;-69
2021/12/20 00:45:55;;;;;;;27.33;6.03;;;2.50;99.90;;;;;;5056347;28;20029;-69
2021/12/20 00:48:23;;;;;;;29.23;5.45;;;2.50;99.90;;;;;;5057514;28;20032;-69
2021/12/20 00:50:51;;;;;;;24.98;4.82;;;2.40;99.90;;;;;;5057368;28;20111;-69
2021/12/20 00:53:19;;;;;;;20.63;3.63;;;2.30;99.90;;;;;;5057852;28;20409;-69
2021/12/20 00:55:46;;;;;;;34.47;4.55;;;2.20;99.90;;;;;;5057918;28;20052;-69
2021/12/20 00:58:14;;;;;;;34.88;4.55;;;2.20;99.90;;;;;;5057195;28;20032;-69
2021/12/20 01:00:51;;;;;;;31.95;6.30;;;2.10;99.90;;;;;;5056965;28;20021;-69
2021/12/20 01:03:21;;;;;;;23.33;3.97;;;2.00;99.90;;;;;;5057965;28;20025;-69
2021/12/20 01:05:49;;;;;;;29.20;5.18;;;1.90;99.90;;;;;;5057976;28;20033;-69
2021/12/20 01:08:19;;;;;;;35.88;4.35;;;1.90;99.90;;;;;;5058635;28;20328;-69
2021/12/20 01:10:51;;;;;;;21.33;4.30;;;1.80;99.90;;;;;;5056951;28;20035;-69
2021/12/20 01:13:22;;;;;;;28.85;5.65;;;1.70;99.90;;;;;;5056738;28;20075;-69
2021/12/20 01:15:53;;;;;;;20.10;4.22;;;1.70;99.90;;;;;;5057005;28;20029;-69
2021/12/20 01:18:22;;;;;;;32.03;4.65;;;1.60;99.90;;;;;;5057790;28;20074;-68
2021/12/20 01:20:51;;;;;;;32.28;5.20;;;1.60;99.90;;;;;;5056738;28;20029;-69
2021/12/20 01:23:19;;;;;;;28.73;3.72;;;1.50;99.90;;;;;;5056709;28;20437;-69
2021/12/20 01:25:47;;;;;;;32.83;5.95;;;1.40;99.90;;;;;;5057286;28;20340;-68
2021/12/20 01:28:15;;;;;;;20.80;4.28;;;1.40;99.90;;;;;;5057107;28;20079;-69
2021/12/20 01:30:43;;;;;;;24.50;5.10;;;1.30;99.90;;;;;;5056696;28;20047;-69
2021/12/20 01:33:12;;;;;;;21.33;3.75;;;1.30;99.90;;;;;;5057274;28;20090;-69
2021/12/20 01:35:42;;;;;;;27.25;4.80;;;1.20;99.90;;;;;;5056312;28;20344;-68
2021/12/20 01:38:10;;;;;;;17.17;3.58;;;1.10;99.90;;;;;;5057949;28;20047;-69
2021/12/20 01:40:38;;;;;;;36.08;3.85;;;1.10;99.90;;;;;;5057573;28;20295;-69
2021/12/20 01:43:10;;;;;;;31.38;6.18;;;1.00;99.90;;;;;;5057755;28;20024;-69
2021/12/20 01:45:38;;;;;;;24.60;4.13;;;1.00;99.90;;;;;;5057327;28;20021;-69
2021/12/20 01:48:09;;;;;;;30.40;4.65;;;1.00;99.90;;;;;;5056302;28;20033;-68
2021/12/20 01:53:29;;;;;;;14.75;2.80;;;0.90;99.90;;;;;;5057230;28;20082;-68
2021/12/20 01:55:57;;;;;;;22.90;4.63;;;0.80;99.90;;;;;;5055008;28;20052;-69
2021/12/20 01:58:26;;;;;;;22.15;4.15;;;0.70;99.90;;;;;;5056840;28;20390;-69
2021/12/20 02:01:18;;;;;;;18.10;3.88;;;0.70;99.90;;;;;;5055289;28;20025;-69
2021/12/20 02:03:53;;;;;;;17.67;4.05;;;0.60;99.90;;;;;;5056985;28;20025;-69
2021/12/20 02:06:30;;;;;;;26.25;4.70;;;0.50;99.90;;;;;;5060373;28;20032;-69
2021/12/20 02:09:01;;;;;;;26.48;5.32;;;0.40;99.90;;;;;;5060219;28;20114;-69
2021/12/20 02:11:29;;;;;;;21.67;5.32;;;0.40;99.90;;;;;;5059305;28;20453;-69
2021/12/20 02:13:57;;;;;;;34.05;6.82;;;0.30;99.90;;;;;;5059426;28;20025;-69
2021/12/20 02:16:24;;;;;;;30.67;7.07;;;0.30;99.90;;;;;;5060276;28;20102;-69
2021/12/20 02:18:53;;;;;;;23.27;4.60;;;0.30;99.90;;;;;;5060301;28;20352;-69
2021/12/20 02:21:28;;;;;;;36.20;5.40;;;0.20;99.90;;;;;;5060013;28;20021;-68
2021/12/20 02:23:56;;;;;;;28.80;4.43;;;0.20;99.90;;;;;;5061147;28;20036;-68
2021/12/20 02:26:24;;;;;;;31.52;6.03;;;0.20;99.90;;;;;;5060517;28;20409;-69
2021/12/20 02:28:55;;;;;;;19.55;5.15;;;0.10;99.90;;;;;;5060945;28;20029;-69
2021/12/20 02:37:27;;;;;;;17.15;3.58;;;0.00;99.90;;;;;;5061070;28;20370;-69
2021/12/20 02:39:56;;;;;;;28.67;6.07;;;-0.10;99.90;;;;;;5059144;28;20409;-69
2021/12/20 02:42:28;;;;;;;31.23;5.38;;;-0.10;99.90;;;;;;5059791;28;20498;-69
2021/12/20 02:45:12;;;;;;;16.45;4.20;;;-0.20;99.90;;;;;;5060750;28;20032;-69
2021/12/20 02:47:44;;;;;;;24.88;5.97;;;-0.20;99.90;;;;;;5059572;28;20044;-68
2021/12/20 02:50:14;;;;;;;24.10;4.50;;;-0.30;99.90;;;;;;5059594;28;20115;-69
2021/12/20 02:52:42;;;;;;;30.10;5.38;;;-0.30;99.90;;;;;;5059429;28;20033;-69
2021/12/20 02:55:10;;;;;;;29.08;4.57;;;-0.40;99.90;;;;;;5059537;28;20049;-69
2021/12/20 02:57:39;;;;;;;24.35;5.03;;;-0.50;99.90;;;;;;5059529;28;20049;-69
2021/12/20 03:00:09;;;;;;;34.40;4.88;;;-0.50;99.90;;;;;;5059676;28;20108;-69
2021/12/20 03:02:37;;;;;;;28.88;5.75;;;-0.50;99.90;;;;;;5060212;28;20029;-69
2021/12/20 03:05:06;;;;;;;18.70;3.90;;;-0.60;99.90;;;;;;5060369;28;20032;-69
2021/12/20 03:07:42;;;;;;;19.55;4.05;;;-0.60;99.90;;;;;;5060216;28;20071;-69
2021/12/20 03:10:11;;;;;;;27.85;5.07;;;-0.70;99.90;;;;;;5060666;28;20113;-69
2021/12/20 03:12:40;;;;;;;25.10;4.82;;;-0.70;99.90;;;;;;5060090;28;20104;-69
2021/12/20 03:15:17;;;;;;;27.45;5.28;;;-0.70;99.90;;;;;;5060123;28;20028;-69
2021/12/20 03:17:45;;;;;;;31.42;5.75;;;-0.80;99.90;;;;;;5060324;28;20024;-69
2021/12/20 03:20:16;;;;;;;22.65;4.85;;;-0.80;99.90;;;;;;5060344;28;20017;-69
2021/12/20 03:22:44;;;;;;;35.30;5.10;;;-0.90;99.90;;;;;;5058936;28;20052;-69
2021/12/20 03:25:11;;;;;;;35.42;5.68;;;-0.90;99.90;;;;;;5059361;28;20099;-69
2021/12/20 03:27:39;;;;;;;36.00;6.10;;;-0.90;99.90;;;;;;5057988;28;20048;-69
2021/12/20 03:30:13;;;;;;;27.83;4.53;;;-0.90;99.90;;;;;;5058834;28;20056;-69
2021/12/20 03:32:41;;;;;;;29.45;5.90;;;-1.00;99.90;;;;;;5059018;28;20032;-69
2021/12/20 03:35:09;;;;;;;33.97;7.18;;;-1.00;99.90;;;;;;5059222;28;20052;-69
2021/12/20 03:37:37;;;;;;;28.00;6.32;;;-1.00;99.90;;;;;;5058704;28;20371;-69
2021/12/20 03:40:05;;;;;;;29.20;5.07;;;-1.00;99.90;;;;;;5057950;28;20017;-69
2021/12/20 03:42:32;;;;;;;30.10;5.38;;;-1.00;99.90;;;;;;5058625;28;20460;-69
2021/12/20 03:44:59;;;;;;;45.80;5.55;;;-1.00;99.90;;;;;;5059724;28;20074;-69
2021/12/20 03:47:27;;;;;;;21.13;5.43;;;-1.10;99.90;;;;;;5060022;28;20028;-69
2021/12/20 03:49:54;;;;;;;26.33;5.18;;;-1.10;99.90;;;;;;5058377;28;20050;-68
2021/12/20 03:52:22;;;;;;;27.08;5.25;;;-1.10;99.90;;;;;;5059315;28;20036;-68
2021/12/20 03:54:50;;;;;;;39.22;5.35;;;-1.20;99.90;;;;;;5059195;28;20122;-69
2021/12/20 03:57:18;;;;;;;23.05;5.10;;;-1.20;99.90;;;;;;5059293;28;20021;-69
2021/12/20 03:59:47;;;;;;;34.88;5.57;;;-1.20;99.90;;;;;;5059839;28;20066;-69
2021/12/20 04:02:19;;;;;;;39.42;6.22;;;-1.20;99.90;;;;;;5059048;28;20029;-69
2021/12/20 04:04:47;;;;;;;35.80;6.55;;;-1.30;99.90;;;;;;5058310;28;20053;-69
2021/12/20 04:07:15;;;;;;;30.88;5.85;;;-1.30;99.90;;;;;;5058191;28;20024;-68
2021/12/20 04:09:43;;;;;;;28.23;5.47;;;-1.30;99.90;;;;;;5058150;28;20017;-68
2021/12/20 04:12:11;;;;;;;31.40;5.00;;;-1.30;99.90;;;;;;5058021;28;20033;-69
2021/12/20 04:14:38;;;;;;;29.02;6.43;;;-1.40;99.90;;;;;;5057560;28;20401;-69
2021/12/20 04:17:06;;;;;;;30.67;6.43;;;-1.40;99.90;;;;;;5057307;28;20075;-69
2021/12/20 04:19:34;;;;;;;45.72;6.05;;;-1.50;99.90;;;;;;5058045;28;20017;-68
2021/12/20 04:22:01;;;;;;;40.00;6.07;;;-1.50;99.90;;;;;;5057884;28;20329;-68
2021/12/20 04:24:29;;;;;;;31.23;6.10;;;-1.50;99.90;;;;;;5057043;28;20021;-69
2021/12/20 04:26:56;;;;;;;41.33;7.10;;;-1.50;99.90;;;;;;5057905;28;20104;-68
2021/12/20 04:29:24;;;;;;;33.72;7.82;;;-1.40;99.90;;;;;;5059189;28;20032;-69
2021/12/20 04:31:52;;;;;;;39.33;5.88;;;-1.40;99.90;;;;;;5058520;28;20025;-68
2021/12/20 04:34:19;;;;;;;35.25;7.18;;;-1.40;99.90;;;;;;5058709;28;20017;-69
2021/12/20 04:36:47;;;;;;;35.70;5.10;;;-1.40;99.90;;;;;;5059087;28;20021;-69
2021/12/20 04:39:18;;;;;;;32.35;5.15;;;-1.50;99.90;;;;;;5058461;28;20032;-69
2021/12/20 04:41:47;;;;;;;39.88;5.90;;;-1.50;99.90;;;;;;5058267;28;20025;-68
2021/12/20 04:44:14;;;;;;;19.40;4.53;;;-1.60;99.90;;;;;;5058359;28;20024;-68
2021/12/20 04:46:42;;;;;;;34.85;4.97;;;-1.60;99.90;;;;;;5058287;28;20017;-69
2021/12/20 04:49:09;;;;;;;42.13;8.57;;;-1.60;99.90;;;;;;5057404;28;20060;-69
2021/12/20 04:51:37;;;;;;;36.83;5.68;;;-1.60;99.90;;;;;;5056604;28;20021;-69
2021/12/20 04:54:05;;;;;;;28.90;6.30;;;-1.60;99.90;;;;;;5057314;28;20032;-69
2021/12/20 04:56:32;;;;;;;45.08;9.95;;;-1.70;99.90;;;;;;5057547;28;20029;-69
2021/12/20 04:59:00;;;;;;;67.28;14.68;;;-1.70;99.90;;;;;;5056434;28;20036;-68
2021/12/20 05:01:28;;;;;;;61.25;12.07;;;-1.70;99.90;;;;;;5057201;28;20028;-68
2021/12/20 05:03:55;;;;;;;46.88;7.65;;;-1.80;99.90;;;;;;5057171;28;20417;-69
2021/12/20 05:06:23;;;;;;;38.38;6.15;;;-1.80;99.90;;;;;;5057631;28;20039;-69
2021/12/20 05:08:55;;;;;;;32.53;6.85;;;-1.80;99.90;;;;;;5057587;28;20063;-68
2021/12/20 05:11:24;;;;;;;35.13;6.90;;;-1.80;99.90;;;;;;5058094;28;20057;-69
2021/12/20 05:13:52;;;;;;;36.30;5.85;;;-1.90;99.90;;;;;;5058423;28;20048;-68
2021/12/20 05:16:20;;;;;;;43.58;6.68;;;-1.90;99.90;;;;;;5057773;28;20107;-69
2021/12/20 05:18:48;;;;;;;36.53;7.13;;;-1.90;99.90;;;;;;5057888;28;20372;-68
2021/12/20 05:21:16;;;;;;;36.83;7.47;;;-1.90;99.90;;;;;;5057766;28;20147;-69
2021/12/20 05:23:44;;;;;;;34.90;6.32;;;-1.90;99.90;;;;;;5057607;28;20336;-69
2021/12/20 05:26:14;;;;;;;42.53;7.55;;;-1.90;99.90;;;;;;5056611;28;20421;-68
2021/12/20 05:28:41;;;;;;;49.80;13.13;;;-1.90;99.90;;;;;;5057890;28;20052;-69
2021/12/20 05:31:10;;;;;;;42.60;11.93;;;-2.00;99.90;;;;;;5057170;28;20032;-68
2021/12/20 05:33:38;;;;;;;33.38;7.45;;;-2.00;99.90;;;;;;5056826;28;20023;-68
2021/12/20 05:36:06;;;;;;;37.92;8.50;;;-2.00;99.90;;;;;;5057424;28;20321;-68
2021/12/20 05:38:34;;;;;;;52.75;7.82;;;-2.10;99.90;;;;;;5056790;28;20021;-68
2021/12/20 05:41:01;;;;;;;33.80;6.28;;;-2.10;99.90;;;;;;5056185;28;20017;-69
2021/12/20 05:43:29;;;;;;;33.00;5.63;;;-2.10;99.90;;;;;;5056076;28;20027;-68
2021/12/20 05:45:57;;;;;;;36.63;6.53;;;-2.10;99.90;;;;;;5056049;28;20025;-69
2021/12/20 05:48:25;;;;;;;31.60;6.35;;;-2.10;99.90;;;;;;5057098;28;20021;-68
2021/12/20 05:50:53;;;;;;;34.30;5.05;;;-2.10;99.90;;;;;;5056383;28;20078;-69
2021/12/20 05:53:24;;;;;;;36.72;6.05;;;-2.00;99.90;;;;;;5056023;28;20120;-68
2021/12/20 05:55:51;;;;;;;52.55;8.75;;;-2.00;99.90;;;;;;5056919;28;20049;-69
2021/12/20 05:58:19;;;;;;;46.80;8.95;;;-1.90;99.90;;;;;;5057319;28;20025;-68
2021/12/20 06:00:47;;;;;;;47.63;9.27;;;-1.90;99.90;;;;;;5057241;28;20031;-68
2021/12/20 06:03:15;;;;;;;42.03;7.28;;;-1.90;99.90;;;;;;5057155;28;20393;-68
2021/12/20 06:05:42;;;;;;;68.47;8.20;;;-1.80;99.90;;;;;;5056066;28;20116;-68
2021/12/20 06:08:10;;;;;;;45.28;9.30;;;-1.70;99.90;;;;;;5057747;28;20079;-68
2021/12/20 06:10:39;;;;;;;80.18;10.90;;;-1.70;99.90;;;;;;5057100;28;20085;-68
2021/12/20 06:13:07;;;;;;;75.80;10.68;;;-1.60;99.90;;;;;;5056105;28;20033;-69
2021/12/20 06:15:35;;;;;;;73.07;8.82;;;-1.60;99.90;;;;;;5055130;28;20086;-68
2021/12/20 06:18:02;;;;;;;97.40;10.60;;;-1.60;99.90;;;;;;5056829;28;20118;-69
2021/12/20 06:20:29;;;;;;;58.72;9.60;;;-1.50;99.90;;;;;;5055108;28;20486;-68
2021/12/20 06:22:57;;;;;;;84.38;8.52;;;-1.50;99.90;;;;;;5055992;28;20047;-68
2021/12/20 06:25:26;;;;;;;54.47;7.88;;;-1.50;99.90;;;;;;5055972;28;20044;-69
2021/12/20 06:27:54;;;;;;;45.30;7.35;;;-1.50;99.90;;;;;;5056007;28;20029;-68
2021/12/20 06:30:22;;;;;;;78.90;10.57;;;-1.40;99.90;;;;;;5056039;28;20025;-68
2021/12/20 06:32:50;;;;;;;81.32;8.95;;;-1.40;99.90;;;;;;5056483;28;20025;-68
2021/12/20 06:35:18;;;;;;;53.08;8.50;;;-1.40;99.90;;;;;;5056770;28;20025;-68
2021/12/20 06:37:59;;;;;;;67.05;9.35;;;-1.40;99.90;;;;;;5055788;28;20120;-68
2021/12/20 06:40:30;;;;;;;62.20;10.07;;;-1.40;99.90;;;;;;5056535;28;20104;-68
2021/12/20 06:42:58;;;;;;;60.92;8.38;;;-1.40;99.90;;;;;;5056972;28;20368;-68
2021/12/20 06:45:26;;;;;;;54.90;8.55;;;-1.40;99.90;;;;;;5057359;28;20485;-68
2021/12/20 06:47:54;;;;;;;48.83;7.80;;;-1.50;99.90;;;;;;5057391;28;20294;-68
2021/12/20 06:50:22;;;;;;;34.58;6.95;;;-1.50;99.90;;;;;;5057461;28;20027;-70
2021/12/20 06:52:49;;;;;;;50.53;8.02;;;-1.50;99.90;;;;;;5060513;28;20024;-69
2021/12/20 06:55:16;;;;;;;53.28;7.95;;;-1.60;99.90;;;;;;5059767;28;20049;-76
2021/12/20 06:57:43;;;;;;;73.75;9.50;;;-1.60;99.90;;;;;;5059613;28;20103;-72
2021/12/20 07:00:12;;;;;;;79.22;16.00;;;-1.60;99.90;;;;;;5059550;28;20325;-72
2021/12/20 07:02:41;;;;;;;55.38;14.95;;;-1.60;99.90;;;;;;5059442;28;20519;-73
2021/12/20 07:05:09;;;;;;;70.93;16.80;;;-1.70;99.90;;;;;;5059626;28;20029;-73
2021/12/20 07:07:37;;;;;;;83.53;11.77;;;-1.70;99.90;;;;;;5059724;28;20032;-73
2021/12/20 07:10:06;;;;;;;58.30;12.07;;;-1.80;99.90;;;;;;5059200;28;20033;-73
2021/12/20 07:12:35;;;;;;;51.85;8.73;;;-1.80;99.90;;;;;;5059560;28;20056;-73
2021/12/20 07:15:04;;;;;;;32.55;7.07;;;-1.90;99.90;;;;;;5059365;28;20036;-73
2021/12/20 07:17:32;;;;;;;36.90;6.78;;;-1.90;99.90;;;;;;5059866;28;20027;-73
2021/12/20 07:20:00;;;;;;;33.63;7.43;;;-1.90;99.90;;;;;;5060030;28;20104;-76
2021/12/20 07:22:28;;;;;;;31.25;6.43;;;-2.00;99.90;;;;;;5060014;28;20358;-71
2021/12/20 07:24:56;;;;;;;40.58;11.38;;;-2.10;99.90;;;;;;5060101;28;20025;-71
2021/12/20 07:27:24;;;;;;;30.65;7.97;;;-2.10;99.90;;;;;;5060441;28;20021;-72
2021/12/20 07:29:52;;;;;;;30.42;8.02;;;-2.20;99.90;;;;;;5059946;28;20027;-69
2021/12/20 07:32:20;;;;;;;33.42;7.65;;;-2.20;99.90;;;;;;5059966;28;20381;-69
2021/12/20 07:34:47;;;;;;;20.25;6.75;;;-2.30;99.90;;;;;;5060231;28;20025;-70
2021/12/20 07:37:16;;;;;;;21.20;7.20;;;-2.30;99.90;;;;;;5059907;28;20040;-71
2021/12/20 07:39:43;;;;;;;18.42;6.97;;;-2.30;99.90;;;;;;5058762;28;20034;-71
2021/12/20 07:42:11;;;;;;;26.40;6.97;;;-2.40;99.90;;;;;;5058735;28;20032;-71
2021/12/20 07:44:38;;;;;;;29.42;6.50;;;-2.40;99.90;;;;;;5058881;28;20029;-71
2021/12/20 07:47:07;;;;;;;29.45;7.30;;;-2.40;99.90;;;;;;5059699;28;20339;-68
2021/12/20 07:49:35;;;;;;;48.90;7.50;;;-2.50;99.90;;;;;;5058786;28;20446;-68
2021/12/20 07:52:04;;;;;;;33.47;6.72;;;-2.50;99.90;;;;;;5057575;28;20151;-67
2021/12/20 07:54:32;;;;;;;26.23;6.63;;;-2.50;99.90;;;;;;5058267;28;20053;-68
2021/12/20 07:56:59;;;;;;;17.75;5.60;;;-2.60;99.90;;;;;;5058447;28;20021;-67
2021/12/20 07:59:27;;;;;;;18.80;7.40;;;-2.60;99.90;;;;;;5059054;28;20032;-67
2021/12/20 08:01:56;;;;;;;21.35;7.03;;;-2.60;99.90;;;;;;5058573;28;20044;-67
2021/12/20 08:04:23;;;;;;;15.35;6.85;;;-2.60;99.90;;;;;;5059358;28;20017;-67
2021/12/20 08:06:51;;;;;;;16.83;6.75;;;-2.60;99.90;;;;;;5059205;28;20021;-68
2021/12/20 08:09:19;;;;;;;17.48;6.63;;;-2.60;99.90;;;;;;5059178;28;20143;-67
2021/12/20 08:11:46;;;;;;;16.17;6.03;;;-2.60;99.90;;;;;;5059653;28;20032;-67
2021/12/20 08:14:14;;;;;;;32.67;8.43;;;-2.60;99.90;;;;;;5059167;28;20055;-68
2021/12/20 08:16:42;;;;;;;16.83;6.50;;;-2.60;99.90;;;;;;5058961;28;20075;-67
2021/12/20 08:19:09;;;;;;;21.17;8.07;;;-2.60;99.90;;;;;;5058899;28;20036;-68
2021/12/20 08:21:37;;;;;;;121.10;38.35;;;-2.60;99.90;;;;;;5058134;28;20082;-73
2021/12/20 08:24:06;;;;;;;69.68;26.13;;;-2.70;99.90;;;;;;5057963;28;20087;-67
2021/12/20 08:26:34;;;;;;;22.75;7.95;;;-2.70;99.90;;;;;;5057784;28;20301;-67
2021/12/20 08:29:01;;;;;;;20.92;7.15;;;-2.60;99.90;;;;;;5057805;28;20104;-67
2021/12/20 08:31:29;;;;;;;21.02;7.70;;;-2.60;99.90;;;;;;5057803;28;20417;-68
2021/12/20 08:33:57;;;;;;;17.67;7.47;;;-2.60;99.90;;;;;;5058089;28;20029;-68
2021/12/20 08:36:24;;;;;;;24.05;8.05;;;-2.60;99.90;;;;;;5058210;28;20394;-68
2021/12/20 08:38:53;;;;;;;23.20;7.85;;;-2.50;99.90;;;;;;5057571;28;20021;-67
2021/12/20 08:41:20;;;;;;;19.58;6.07;;;-2.50;99.90;;;;;;5057469;28;20025;-68
2021/12/20 08:43:48;;;;;;;19.70;7.55;;;-2.50;99.90;;;;;;5057969;28;20017;-68
2021/12/20 08:46:18;;;;;;;17.90;6.45;;;-2.50;99.90;;;;;;5058307;28;20440;-68
2021/12/20 08:48:48;;;;;;;17.25;6.78;;;-2.40;99.90;;;;;;5057668;28;20036;-68
2021/12/20 08:51:15;;;;;;;18.75;6.53;;;-2.40;99.90;;;;;;5058296;28;20032;-67
2021/12/20 08:53:44;;;;;;;24.95;7.15;;;-2.40;99.90;;;;;;5057810;28;20427;-68
2021/12/20 08:56:13;;;;;;;14.85;7.05;;;-2.40;99.90;;;;;;5057851;28;20496;-68
2021/12/20 08:58:40;;;;;;;17.45;6.80;;;-2.30;99.90;;;;;;5058146;28;20113;-68
2021/12/20 09:01:07;;;;;;;18.20;6.60;;;-2.30;99.90;;;;;;5057449;28;20287;-68
2021/12/20 09:03:35;;;;;;;19.70;6.40;;;-2.30;99.90;;;;;;5057852;28;20419;-72
2021/12/20 09:06:02;;;;;;;15.43;6.63;;;-2.20;99.90;;;;;;5057071;28;20024;-68
2021/12/20 09:08:31;;;;;;;13.48;5.88;;;-2.20;99.90;;;;;;5057467;28;20032;-68
2021/12/20 09:10:58;;;;;;;18.73;6.40;;;-2.10;99.90;;;;;;5057169;28;20323;-68
2021/12/20 09:13:25;;;;;;;18.60;6.93;;;-2.10;99.90;;;;;;5056667;28;20044;-68
2021/12/20 09:15:58;;;;;;;17.50;6.75;;;-2.10;99.90;;;;;;5055650;28;20032;-68
2021/12/20 09:18:28;;;;;;;23.55;8.45;;;-2.00;99.90;;;;;;5056804;28;20028;-68
2021/12/20 09:20:57;;;;;;;20.55;6.53;;;-1.90;99.90;;;;;;5056812;28;20021;-67
2021/12/20 09:23:29;;;;;;;24.67;7.63;;;-1.90;99.90;;;;;;5056543;28;20044;-68
2021/12/20 09:25:57;;;;;;;50.05;19.25;;;-1.90;99.90;;;;;;5057240;28;20067;-68
2021/12/20 09:28:26;;;;;;;102.05;39.88;;;-1.80;99.90;;;;;;5057694;28;20048;-69
2021/12/20 09:30:54;;;;;;;54.95;19.42;;;-1.70;99.90;;;;;;5058595;28;20283;-68
2021/12/20 09:33:21;;;;;;;38.35;13.38;;;-1.70;99.90;;;;;;5057479;28;20025;-68
2021/12/20 09:35:51;;;;;;;21.20;9.18;;;-1.60;99.90;;;;;;5057651;28;20429;-69
2021/12/20 09:38:20;;;;;;;23.77;10.05;;;-1.50;99.90;;;;;;5057666;28;20025;-69
2021/12/20 09:41:16;;;;;;;35.88;12.48;;;-1.50;99.90;;;;;;5057475;28;20025;-69
2021/12/20 09:43:52;;;;;;;20.08;7.90;;;-1.40;99.90;;;;;;5057483;28;20087;-66
2021/12/20 09:46:24;;;;;;;17.40;6.15;;;-1.30;99.90;;;;;;5057049;28;20025;-67
2021/12/20 09:48:52;;;;;;;17.90;6.55;;;-1.20;99.90;;;;;;5056442;28;20032;-67
2021/12/20 09:51:20;;;;;;;22.98;10.60;;;-1.10;99.90;;;;;;5056284;28;20329;-67
2021/12/20 09:53:48;;;;;;;17.83;7.05;;;-1.10;99.90;;;;;;5056520;28;20381;-65
2021/12/20 09:56:17;;;;;;;18.60;7.50;;;-1.00;99.90;;;;;;5054996;28;20128;-67
2021/12/20 09:58:50;;;;;;;17.75;6.57;;;-0.90;99.90;;;;;;5056402;28;20021;-67
2021/12/20 10:01:20;;;;;;;20.42;6.63;;;-0.80;99.90;;;;;;5056030;28;20025;-67
2021/12/20 10:03:48;;;;;;;26.77;9.60;;;-0.80;99.90;;;;;;5056245;28;20025;-67
2021/12/20 10:06:17;;;;;;;16.10;6.00;;;-0.70;99.90;;;;;;5056667;28;20040;-67
2021/12/20 10:08:53;;;;;;;17.42;6.07;;;-0.60;99.90;;;;;;5056221;28;20041;-67
2021/12/20 10:11:29;;;;;;;;;;;-0.60;99.90;;;;;;5057546;28;20021;-66
2021/12/20 10:14:10;;;;;;;12.90;5.55;;;-0.60;99.90;;;;;;5057624;28;19909;-67
2021/12/20 10:16:41;;;;;;;14.43;5.43;;;-0.50;99.90;;;;;;5056939;28;20021;-67
2021/12/20 10:19:31;;;;;;;13.30;5.40;;;-0.50;99.90;;;;;;5057079;28;20380;-67
2021/12/20 10:22:01;;;;;;;12.00;6.43;;;-0.50;99.90;;;;;;5057571;28;20313;-67
2021/12/20 10:24:36;;;;;;;19.38;5.97;;;-0.40;99.90;;;;;;5055858;28;20032;-67
2021/12/20 10:27:04;;;;;;;11.65;5.97;;;-0.40;99.90;;;;;;5060741;28;20421;-67
2021/12/20 10:29:37;;;;;;;16.50;5.93;;;-0.30;99.90;;;;;;5061069;28;20036;-67
2021/12/20 10:32:06;;;;;;;14.68;5.03;;;-0.30;99.90;;;;;;5059766;28;20017;-67
2021/12/20 10:34:35;;;;;;;12.90;5.22;;;-0.30;99.90;;;;;;5059943;28;20023;-67
2021/12/20 10:37:05;;;;;;;10.32;5.80;;;-0.30;99.90;;;;;;5059835;28;20049;-67
2021/12/20 10:39:43;;;;;;;12.00;4.53;;;-0.20;99.90;;;;;;5059772;28;20029;-67
2021/12/20 10:42:20;;;;;;;13.88;4.80;;;-0.20;99.90;;;;;;5059575;28;20025;-67
2021/12/20 10:45:19;;;;;;;10.63;4.82;;;-0.20;99.90;;;;;;5059733;28;20017;-67
2021/12/20 10:47:49;;;;;;;40.83;6.38;;;-0.10;99.90;;;;;;5059644;28;20052;-67
2021/12/20 10:50:28;;;;;;;9.63;4.45;;;-0.10;99.90;;;;;;5059004;28;20036;-67
2021/12/20 10:53:18;;;;;;;15.48;5.10;;;-0.10;99.90;;;;;;5060176;28;20021;-67
2021/12/20 10:55:49;;;;;;;9.10;4.18;;;0.00;99.90;;;;;;5060209;28;20083;-66
2021/12/20 10:58:33;;;;;;;11.73;4.65;;;0.00;99.90;;;;;;5059455;28;20028;-66
2021/12/20 11:04:13;;;;;;;9.60;4.07;;;0.10;99.90;;;;;;5060085;28;20086;-66
2021/12/20 11:09:18;;;;;;;9.25;4.30;;;0.10;99.90;;;;;;5060220;28;20025;-66
2021/12/20 11:11:56;;;;;;;9.55;3.63;;;0.20;99.90;;;;;;5060076;28;20029;-66
2021/12/20 11:14:30;;;;;;;10.13;4.10;;;0.20;99.90;;;;;;5059265;28;20053;-66
2021/12/20 11:16:59;;;;;;;14.50;4.32;;;0.20;99.90;;;;;;5059225;28;20017;-66
2021/12/20 11:19:29;;;;;;;13.45;5.00;;;0.30;99.90;;;;;;5059526;28;20021;-66
2021/12/20 11:22:07;;;;;;;8.60;4.28;;;0.30;99.90;;;;;;5057940;28;20025;-66
2021/12/20 11:24:52;;;;;;;12.60;5.88;;;0.30;99.90;;;;;;5058828;28;20024;-67
2021/12/20 11:27:21;;;;;;;9.65;5.47;;;0.40;99.90;;;;;;5059509;28;20022;-67
2021/12/20 11:29:55;;;;;;;8.40;4.25;;;0.40;99.90;;;;;;5058905;28;20052;-67
2021/12/20 11:32:24;;;;;;;9.75;4.43;;;0.40;99.90;;;;;;5057693;28;20032;-66
2021/12/20 11:34:52;;;;;;;11.63;5.53;;;0.50;99.90;;;;;;5059488;28;20033;-66
2021/12/20 11:37:24;;;;;;;9.45;4.05;;;0.50;99.90;;;;;;5058658;28;20114;-66
2021/12/20 11:39:53;;;;;;;12.35;5.32;;;0.50;99.90;;;;;;5059710;28;20025;-66
2021/12/20 11:42:22;;;;;;;9.15;4.85;;;0.50;99.90;;;;;;5059658;28;20021;-67
2021/12/20 11:44:57;;;;;;;9.23;4.07;;;0.50;99.90;;;;;;5059698;28;20162;-67
2021/12/20 11:47:46;;;;;;;10.95;4.32;;;0.60;99.90;;;;;;5059579;28;20112;-66
2021/12/20 11:50:21;;;;;;;9.70;3.65;;;0.60;99.90;;;;;;5060095;28;20032;-67
2021/12/20 11:52:52;;;;;;;9.97;4.20;;;0.60;99.90;;;;;;5059491;28;20025;-66
2021/12/20 11:55:27;;;;;;;10.65;4.10;;;0.50;99.90;;;;;;5058545;28;20124;-68
2021/12/20 11:58:03;;;;;;;10.68;3.97;;;0.50;99.90;;;;;;5058448;28;20049;-68
2021/12/20 12:00:40;;;;;;;8.63;4.25;;;0.50;99.90;;;;;;5057300;28;20029;-67
2021/12/20 12:03:23;;;;;;;10.65;4.63;;;0.40;99.90;;;;;;5058794;28;20372;-69
2021/12/20 12:06:13;;;;;;;11.63;5.18;;;0.40;99.90;;;;;;5058506;28;20021;-68
2021/12/20 12:08:58;;;;;;;13.07;5.35;;;0.30;99.90;;;;;;5058174;28;20021;-69
2021/12/20 12:11:26;;;;;;;11.13;5.43;;;0.30;99.90;;;;;;5058727;28;20021;-69
2021/12/20 12:14:06;;;;;;;22.50;7.78;;;0.30;99.90;;;;;;5058177;28;20028;-69
2021/12/20 12:16:57;;;;;;;16.30;6.05;;;0.30;99.90;;;;;;5058042;28;20440;-69
2021/12/20 12:19:52;;;;;;;10.93;5.05;;;0.30;99.90;;;;;;5059519;28;20447;-69
2021/12/20 12:22:42;;;;;;;10.98;4.65;;;0.30;99.90;;;;;;5059558;28;20040;-69
2021/12/20 12:25:37;;;;;;;10.50;4.95;;;0.30;99.90;;;;;;5058515;28;20029;-68
2021/12/20 12:28:06;;;;;;;7.78;3.50;;;0.30;99.90;;;;;;5059433;28;20044;-68
2021/12/20 12:30:36;;;;;;;8.20;3.90;;;0.30;99.90;;;;;;5058749;28;20025;-69
2021/12/20 12:33:04;;;;;;;14.13;4.88;;;0.30;99.90;;;;;;5059166;28;20313;-68
2021/12/20 12:35:47;;;;;;;8.35;4.30;;;0.30;99.90;;;;;;5059129;28;20028;-68
2021/12/20 12:38:38;;;;;;;8.40;4.28;;;0.30;99.90;;;;;;5057554;28;20049;-69
2021/12/20 12:41:16;;;;;;;9.50;4.30;;;0.30;99.90;;;;;;5057459;28;20025;-69
2021/12/20 12:43:54;;;;;;;8.60;4.82;;;0.30;99.90;;;;;;5057408;28;20044;-69
2021/12/20 12:46:37;;;;;;;8.43;4.05;;;0.30;99.90;;;;;;5057998;28;20021;-68
2021/12/20 12:49:29;;;;;;;10.52;4.43;;;0.30;99.90;;;;;;5056863;28;20039;-69
2021/12/20 12:52:06;;;;;;;13.57;4.93;;;0.30;99.90;;;;;;5057273;28;20074;-68
2021/12/20 12:54:40;;;;;;;9.77;3.55;;;0.30;99.90;;;;;;5057092;28;20037;-69
2021/12/20 12:57:11;;;;;;;8.88;3.58;;;0.30;99.90;;;;;;5057174;28;20021;-69
2021/12/20 12:59:56;;;;;;;7.30;3.67;;;0.40;99.90;;;;;;5058466;28;20039;-68
2021/12/20 13:02:30;;;;;;;8.50;4.15;;;0.40;99.90;;;;;;5058788;28;20033;-69
2021/12/20 13:05:17;;;;;;;8.60;4.10;;;0.40;99.90;;;;;;5058018;28;20048;-68
2021/12/20 13:07:47;;;;;;;8.50;4.55;;;0.40;99.90;;;;;;5057963;28;20086;-68
2021/12/20 13:10:18;;;;;;;10.57;3.85;;;0.40;99.90;;;;;;5058180;28;20052;-69
2021/12/20 13:12:57;;;;;;;8.15;4.20;;;0.40;99.90;;;;;;5056656;28;20029;-76
2021/12/20 13:15:43;;;;;;;11.43;4.03;;;0.40;99.90;;;;;;5057851;28;20021;-69